sensor_id;sensor_type;location;lat;lon;timestamp;temperature;humidity
30572;DHT22;17348;50.948;10.696;2022-12-18T00:01:46;-8.40;99.90
30572;DHT22;17348;50.948;10.696;2022-12-18T00:04:49;-8.40;99.90
30572;DHT22;17348;50.948;10.696;2022-12-18T00:07:52;-8.50;99.90
30572;DHT22;17348;50.948;10.696;2022-12-18T00:10:55;-8.50;99.90
30572;DHT22;17348;50.948;10.696;2022-12-18T00:13:58;-8.50;99.90
30572;DHT22;17348;50.948;10.696;2022-12-18T00:17:01;-8.50;99.90
30572;DHT22;17348;50.948;10.696;2022-12-18T00:20:04;-8.50;99.90
30572;DHT22;17348;50.948;10.696;2022-12-18T00:23:08;-8.50;99.90
30572;DHT22;17348;50.948;10.696;2022-12-18T00:26:12;-8.50;99.90
30572;DHT22;17348;50.948;10.696;2022-12-18T00:29:15;-8.50;99.90
30572;DHT22;17348;50.948;10.696;2022-12-18T00:32:18;-8.60;99.90
30572;DHT22;17348;50.948;10.696;2022-12-18T00:35:20;-8.60;99.90
30572;DHT22;17348;50.948;10.696;2022-12-18T00:38:24;-8.50;99.90
30572;DHT22;17348;50.948;10.696;2022-12-18T00:41:27;-8.60;99.90
30572;DHT22;17348;50.948;10.696;2022-12-18T00:44:46;-8.60;99.90
30572;DHT22;17348;50.948;10.696;2022-12-18T00:47:48;-8.60;99.90
30572;DHT22;17348;50.948;10.696;2022-12-18T00:50:51;-8.60;99.90
30572;DHT22;17348;50.948;10.696;2022-12-18T00:53:55;-8.60;99.90
30572;DHT22;17348;50.948;10.696;2022-12-18T00:56:57;-8.60;99.90
30572;DHT22;17348;50.948;10.696;2022-12-18T00:59:59;-8.60;99.90
30572;DHT22;17348;50.948;10.696;2022-12-18T01:03:02;-8.60;99.90
30572;DHT22;17348;50.948;10.696;2022-12-18T01:06:06;-8.60;99.90
30572;DHT22;17348;50.948;10.696;2022-12-18T01:09:10;-8.60;99.90
30572;DHT22;17348;50.948;10.696;2022-12-18T01:12:12;-8.60;99.90
30572;DHT22;17348;50.948;10.696;2022-12-18T01:15:15;-8.70;99.90
30572;DHT22;17348;50.948;10.696;2022-12-18T01:18:17;-8.70;99.90
30572;DHT22;17348;50.948;10.696;2022-12-18T01:21:20;-8.70;99.90
30572;DHT22;17348;50.948;10.696;2022-12-18T01:24:24;-8.70;99.90
30572;DHT22;17348;50.948;10.696;2022-12-18T01:27:27;-8.70;99.90
30572;DHT22;17348;50.948;10.696;2022-12-18T01:30:29;-8.70;99.90
30572;DHT22;17348;50.948;10.696;2022-12-18T01:33:31;-8.70;99.90
30572;DHT22;17348;50.948;10.696;2022-12-18T01:36:36;-8.70;99.90
30572;DHT22;17348;50.948;10.696;2022-12-18T01:39:41;-8.70;99.90
30572;DHT22;17348;50.948;10.696;2022-12-18T01:42:43;-8.70;99.90
30572;DHT22;17348;50.948;10.696;2022-12-18T01:45:45;-8.70;99.90
30572;DHT22;17348;50.948;10.696;2022-12-18T01:48:50;-8.80;99.90
30572;DHT22;17348;50.948;10.696;2022-12-18T01:51:53;-8.80;99.90
30572;DHT22;17348;50.948;10.696;2022-12-18T01:54:57;-8.90;99.90
30572;DHT22;17348;50.948;10.696;2022-12-18T01:58:00;-8.90;99.90
30572;DHT22;17348;50.948;10.696;2022-12-18T02:01:03;-8.90;99.90
30572;DHT22;17348;50.948;10.696;2022-12-18T02:04:20;-9.00;99.90
30572;DHT22;17348;50.948;10.696;2022-12-18T02:07:29;-9.00;99.90
30572;DHT22;17348;50.948;10.696;2022-12-18T02:10:42;-9.00;99.90
30572;DHT22;17348;50.948;10.696;2022-12-18T02:13:53;-9.00;99.90
30572;DHT22;17348;50.948;10.696;2022-12-18T02:17:02;-9.00;99.90
30572;DHT22;17348;50.948;10.696;2022-12-18T02:20:13;-9.00;99.90
30572;DHT22;17348;50.948;10.696;2022-12-18T02:23:29;-9.10;99.90
30572;DHT22;17348;50.948;10.696;2022-12-18T02:26:43;-9.10;99.90
30572;DHT22;17348;50.948;10.696;2022-12-18T02:29:50;-9.10;99.90
30572;DHT22;17348;50.948;10.696;2022-12-18T02:32:53;-9.10;99.90
30572;DHT22;17348;50.948;10.696;2022-12-18T02:35:57;-9.20;99.90
30572;DHT22;17348;50.948;10.696;2022-12-18T02:39:01;-9.20;99.90
30572;DHT22;17348;50.948;10.696;2022-12-18T02:42:08;-9.30;99.90
30572;DHT22;17348;50.948;10.696;2022-12-18T02:45:10;-9.40;99.90
30572;DHT22;17348;50.948;10.696;2022-12-18T02:48:13;-9.40;99.90
30572;DHT22;17348;50.948;10.696;2022-12-18T02:51:22;-9.40;99.90
30572;DHT22;17348;50.948;10.696;2022-12-18T02:54:35;-9.40;99.90
30572;DHT22;17348;50.948;10.696;2022-12-18T02:57:44;-9.50;99.90
30572;DHT22;17348;50.948;10.696;2022-12-18T03:00:52;-9.50;99.90
30572;DHT22;17348;50.948;10.696;2022-12-18T03:04:01;-9.50;99.90
30572;DHT22;17348;50.948;10.696;2022-12-18T03:07:08;-9.50;99.90
30572;DHT22;17348;50.948;10.696;2022-12-18T03:10:14;-9.50;99.90
30572;DHT22;17348;50.948;10.696;2022-12-18T03:13:23;-9.60;99.90
30572;DHT22;17348;50.948;10.696;2022-12-18T03:16:28;-9.60;99.90
30572;DHT22;17348;50.948;10.696;2022-12-18T03:19:32;-9.60;99.90
30572;DHT22;17348;50.948;10.696;2022-12-18T03:22:36;-9.60;99.90
30572;DHT22;17348;50.948;10.696;2022-12-18T03:25:41;-9.60;99.90
30572;DHT22;17348;50.948;10.696;2022-12-18T03:28:49;-9.60;99.90
30572;DHT22;17348;50.948;10.696;2022-12-18T03:31:54;-9.60;99.90
30572;DHT22;17348;50.948;10.696;2022-12-18T03:35:02;-9.60;99.90
30572;DHT22;17348;50.948;10.696;2022-12-18T03:38:06;-9.70;99.90
30572;DHT22;17348;50.948;10.696;2022-12-18T03:41:15;-9.70;99.90
30572;DHT22;17348;50.948;10.696;2022-12-18T03:44:26;-9.70;99.90
30572;DHT22;17348;50.948;10.696;2022-12-18T03:47:33;-9.70;99.90
30572;DHT22;17348;50.948;10.696;2022-12-18T03:50:44;-9.80;99.90
30572;DHT22;17348;50.948;10.696;2022-12-18T03:53:52;-9.70;99.90
30572;DHT22;17348;50.948;10.696;2022-12-18T03:57:01;-9.70;99.90
30572;DHT22;17348;50.948;10.696;2022-12-18T04:00:09;-9.80;99.90
30572;DHT22;17348;50.948;10.696;2022-12-18T04:03:13;-9.80;99.90
30572;DHT22;17348;50.948;10.696;2022-12-18T04:06:17;-9.80;99.90
30572;DHT22;17348;50.948;10.696;2022-12-18T04:09:20;-9.80;99.90
30572;DHT22;17348;50.948;10.696;2022-12-18T04:12:24;-9.80;99.90
30572;DHT22;17348;50.948;10.696;2022-12-18T04:15:28;-9.80;99.90
30572;DHT22;17348;50.948;10.696;2022-12-18T04:18:31;-9.90;99.90
30572;DHT22;17348;50.948;10.696;2022-12-18T04:21:33;-9.90;99.90
30572;DHT22;17348;50.948;10.696;2022-12-18T04:24:35;-9.90;99.90
30572;DHT22;17348;50.948;10.696;2022-12-18T04:27:38;-9.90;99.90
30572;DHT22;17348;50.948;10.696;2022-12-18T04:30:41;-10.00;99.90
30572;DHT22;17348;50.948;10.696;2022-12-18T04:33:44;-10.00;99.90
30572;DHT22;17348;50.948;10.696;2022-12-18T04:36:46;-10.00;99.90
30572;DHT22;17348;50.948;10.696;2022-12-18T04:39:49;-10.00;99.90
30572;DHT22;17348;50.948;10.696;2022-12-18T04:42:51;-10.00;99.90
30572;DHT22;17348;50.948;10.696;2022-12-18T04:46:01;-10.10;99.90
30572;DHT22;17348;50.948;10.696;2022-12-18T04:49:03;-10.10;99.90
30572;DHT22;17348;50.948;10.696;2022-12-18T04:52:06;-10.10;99.90
30572;DHT22;17348;50.948;10.696;2022-12-18T04:55:08;-10.10;99.90
30572;DHT22;17348;50.948;10.696;2022-12-18T04:58:11;-10.10;99.90
30572;DHT22;17348;50.948;10.696;2022-12-18T05:01:16;-10.10;99.90
30572;DHT22;17348;50.948;10.696;2022-12-18T05:04:19;-10.10;99.90
30572;DHT22;17348;50.948;10.696;2022-12-18T05:07:21;-10.00;99.90
30572;DHT22;17348;50.948;10.696;2022-12-18T05:10:24;-10.10;99.90
30572;DHT22;17348;50.948;10.696;2022-12-18T05:13:26;-10.10;99.90
30572;DHT22;17348;50.948;10.696;2022-12-18T05:16:35;-10.10;99.90
30572;DHT22;17348;50.948;10.696;2022-12-18T05:19:37;-10.10;99.90
30572;DHT22;17348;50.948;10.696;2022-12-18T05:22:40;-10.10;99.90
30572;DHT22;17348;50.948;10.696;2022-12-18T05:25:42;-10.10;99.90
30572;DHT22;17348;50.948;10.696;2022-12-18T05:28:48;-10.10;99.90
30572;DHT22;17348;50.948;10.696;2022-12-18T05:31:52;-10.10;99.90
30572;DHT22;17348;50.948;10.696;2022-12-18T05:34:54;-10.10;99.90
30572;DHT22;17348;50.948;10.696;2022-12-18T05:37:58;-10.10;99.90
30572;DHT22;17348;50.948;10.696;2022-12-18T05:41:00;-10.10;99.90
30572;DHT22;17348;50.948;10.696;2022-12-18T05:44:03;-10.10;99.90
30572;DHT22;17348;50.948;10.696;2022-12-18T05:47:07;-10.10;99.90
30572;DHT22;17348;50.948;10.696;2022-12-18T05:50:09;-10.20;99.90
30572;DHT22;17348;50.948;10.696;2022-12-18T05:53:12;-10.10;99.90
30572;DHT22;17348;50.948;10.696;2022-12-18T05:56:17;-10.10;99.90
30572;DHT22;17348;50.948;10.696;2022-12-18T05:59:20;-10.10;99.90
30572;DHT22;17348;50.948;10.696;2022-12-18T06:02:24;-10.10;99.90
30572;DHT22;17348;50.948;10.696;2022-12-18T06:05:26;-10.10;99.90
30572;DHT22;17348;50.948;10.696;2022-12-18T06:08:28;-10.00;99.90
30572;DHT22;17348;50.948;10.696;2022-12-18T06:11:31;-10.10;99.90
30572;DHT22;17348;50.948;10.696;2022-12-18T06:14:33;-10.10;99.90
30572;DHT22;17348;50.948;10.696;2022-12-18T06:17:37;-10.00;99.90
30572;DHT22;17348;50.948;10.696;2022-12-18T06:20:39;-10.10;99.90
30572;DHT22;17348;50.948;10.696;2022-12-18T06:23:42;-10.10;99.90
30572;DHT22;17348;50.948;10.696;2022-12-18T06:26:44;-10.10;99.90
30572;DHT22;17348;50.948;10.696;2022-12-18T06:29:49;-10.10;99.90
30572;DHT22;17348;50.948;10.696;2022-12-18T06:32:53;-10.20;99.90
30572;DHT22;17348;50.948;10.696;2022-12-18T06:36:00;-10.10;99.90
30572;DHT22;17348;50.948;10.696;2022-12-18T06:39:02;-10.10;99.90
30572;DHT22;17348;50.948;10.696;2022-12-18T06:42:05;-10.20;99.90
30572;DHT22;17348;50.948;10.696;2022-12-18T06:45:08;-10.20;99.90
30572;DHT22;17348;50.948;10.696;2022-12-18T06:48:12;-10.20;99.90
30572;DHT22;17348;50.948;10.696;2022-12-18T06:51:19;-10.20;99.90
30572;DHT22;17348;50.948;10.696;2022-12-18T06:54:22;-10.20;99.90
30572;DHT22;17348;50.948;10.696;2022-12-18T06:57:24;-10.30;99.90
30572;DHT22;17348;50.948;10.696;2022-12-18T07:00:26;-10.30;99.90
30572;DHT22;17348;50.948;10.696;2022-12-18T07:03:30;-10.30;99.90
30572;DHT22;17348;50.948;10.696;2022-12-18T07:06:33;-10.30;99.90
30572;DHT22;17348;50.948;10.696;2022-12-18T07:09:35;-10.30;99.90
30572;DHT22;17348;50.948;10.696;2022-12-18T07:12:38;-10.30;99.90
30572;DHT22;17348;50.948;10.696;2022-12-18T07:15:40;-10.20;99.90
30572;DHT22;17348;50.948;10.696;2022-12-18T07:18:44;-10.30;99.90
30572;DHT22;17348;50.948;10.696;2022-12-18T07:21:46;-10.30;99.90
30572;DHT22;17348;50.948;10.696;2022-12-18T07:24:48;-10.30;99.90
30572;DHT22;17348;50.948;10.696;2022-12-18T07:27:53;-10.30;99.90
30572;DHT22;17348;50.948;10.696;2022-12-18T07:30:56;-10.30;99.90
30572;DHT22;17348;50.948;10.696;2022-12-18T07:34:00;-10.30;99.90
30572;DHT22;17348;50.948;10.696;2022-12-18T07:37:03;-10.40;99.90
30572;DHT22;17348;50.948;10.696;2022-12-18T07:40:07;-10.30;99.90
30572;DHT22;17348;50.948;10.696;2022-12-18T07:43:09;-10.30;99.90
30572;DHT22;17348;50.948;10.696;2022-12-18T07:46:13;-10.20;99.90
30572;DHT22;17348;50.948;10.696;2022-12-18T07:49:18;-10.20;99.90
30572;DHT22;17348;50.948;10.696;2022-12-18T07:52:21;-10.20;99.90
30572;DHT22;17348;50.948;10.696;2022-12-18T07:55:23;-10.20;99.90
30572;DHT22;17348;50.948;10.696;2022-12-18T07:58:27;-10.10;99.90
30572;DHT22;17348;50.948;10.696;2022-12-18T08:01:30;-10.00;99.90
30572;DHT22;17348;50.948;10.696;2022-12-18T08:04:34;-9.90;99.90
30572;DHT22;17348;50.948;10.696;2022-12-18T08:07:36;-9.80;99.90
30572;DHT22;17348;50.948;10.696;2022-12-18T08:10:39;-9.70;99.90
30572;DHT22;17348;50.948;10.696;2022-12-18T08:13:41;-9.60;99.90
30572;DHT22;17348;50.948;10.696;2022-12-18T08:16:43;-9.50;99.90
30572;DHT22;17348;50.948;10.696;2022-12-18T08:19:47;-9.40;99.90
30572;DHT22;17348;50.948;10.696;2022-12-18T08:22:50;-9.30;99.90
30572;DHT22;17348;50.948;10.696;2022-12-18T08:25:52;-9.20;99.90
30572;DHT22;17348;50.948;10.696;2022-12-18T08:28:55;-9.10;99.90
30572;DHT22;17348;50.948;10.696;2022-12-18T08:31:58;-9.00;99.90
30572;DHT22;17348;50.948;10.696;2022-12-18T08:35:02;-8.90;99.90
30572;DHT22;17348;50.948;10.696;2022-12-18T08:38:04;-8.80;99.90
30572;DHT22;17348;50.948;10.696;2022-12-18T08:41:09;-8.80;99.90
30572;DHT22;17348;50.948;10.696;2022-12-18T08:44:12;-8.80;99.90
30572;DHT22;17348;50.948;10.696;2022-12-18T08:47:32;-8.70;99.90
30572;DHT22;17348;50.948;10.696;2022-12-18T08:50:35;-8.60;99.90
30572;DHT22;17348;50.948;10.696;2022-12-18T08:53:38;-8.60;99.90
30572;DHT22;17348;50.948;10.696;2022-12-18T08:56:41;-8.60;99.90
30572;DHT22;17348;50.948;10.696;2022-12-18T08:59:43;-8.50;99.90
30572;DHT22;17348;50.948;10.696;2022-12-18T09:02:45;-8.50;99.90
30572;DHT22;17348;50.948;10.696;2022-12-18T09:05:50;-8.40;99.90
30572;DHT22;17348;50.948;10.696;2022-12-18T09:08:52;-8.30;99.90
30572;DHT22;17348;50.948;10.696;2022-12-18T09:11:56;-8.20;99.90
30572;DHT22;17348;50.948;10.696;2022-12-18T09:14:58;-8.10;99.90
30572;DHT22;17348;50.948;10.696;2022-12-18T09:18:01;-8.00;99.90
30572;DHT22;17348;50.948;10.696;2022-12-18T09:21:13;-7.90;99.90
30572;DHT22;17348;50.948;10.696;2022-12-18T09:24:16;-7.70;99.90
30572;DHT22;17348;50.948;10.696;2022-12-18T09:27:18;-7.60;99.90
30572;DHT22;17348;50.948;10.696;2022-12-18T09:30:21;-7.40;99.90
30572;DHT22;17348;50.948;10.696;2022-12-18T09:33:23;-7.40;99.90
30572;DHT22;17348;50.948;10.696;2022-12-18T09:36:27;-7.30;99.90
30572;DHT22;17348;50.948;10.696;2022-12-18T09:39:29;-7.20;99.90
30572;DHT22;17348;50.948;10.696;2022-12-18T09:42:32;-7.10;99.90
30572;DHT22;17348;50.948;10.696;2022-12-18T09:45:40;-7.00;99.90
30572;DHT22;17348;50.948;10.696;2022-12-18T09:48:45;-6.90;99.90
30572;DHT22;17348;50.948;10.696;2022-12-18T09:51:54;-6.80;99.90
30572;DHT22;17348;50.948;10.696;2022-12-18T09:55:01;-6.70;99.90
30572;DHT22;17348;50.948;10.696;2022-12-18T09:58:07;-6.60;99.90
30572;DHT22;17348;50.948;10.696;2022-12-18T10:01:19;-6.60;99.90
30572;DHT22;17348;50.948;10.696;2022-12-18T10:04:24;-6.50;99.90
30572;DHT22;17348;50.948;10.696;2022-12-18T10:07:33;-6.30;99.90
30572;DHT22;17348;50.948;10.696;2022-12-18T10:10:45;-6.30;99.90
30572;DHT22;17348;50.948;10.696;2022-12-18T10:13:53;-6.20;99.90
30572;DHT22;17348;50.948;10.696;2022-12-18T10:17:02;-6.10;99.90
30572;DHT22;17348;50.948;10.696;2022-12-18T10:20:13;-6.00;99.90
30572;DHT22;17348;50.948;10.696;2022-12-18T10:23:22;-5.90;99.90
30572;DHT22;17348;50.948;10.696;2022-12-18T10:26:28;-5.70;99.90
30572;DHT22;17348;50.948;10.696;2022-12-18T10:29:30;-5.50;99.90
30572;DHT22;17348;50.948;10.696;2022-12-18T10:32:33;-5.40;99.90
30572;DHT22;17348;50.948;10.696;2022-12-18T10:35:35;-5.10;99.90
30572;DHT22;17348;50.948;10.696;2022-12-18T10:38:39;-5.00;99.90
30572;DHT22;17348;50.948;10.696;2022-12-18T10:41:42;-4.90;99.90
30572;DHT22;17348;50.948;10.696;2022-12-18T10:44:44;-4.90;99.90
30572;DHT22;17348;50.948;10.696;2022-12-18T10:47:48;-4.80;99.90
30572;DHT22;17348;50.948;10.696;2022-12-18T10:50:52;-4.80;99.90
30572;DHT22;17348;50.948;10.696;2022-12-18T10:53:59;-4.70;99.90
30572;DHT22;17348;50.948;10.696;2022-12-18T10:57:15;-4.60;99.90
30572;DHT22;17348;50.948;10.696;2022-12-18T11:00:26;-4.60;99.90
30572;DHT22;17348;50.948;10.696;2022-12-18T11:03:31;-4.50;99.90
30572;DHT22;17348;50.948;10.696;2022-12-18T11:06:53;-4.60;99.90
30572;DHT22;17348;50.948;10.696;2022-12-18T11:10:01;-4.60;99.90
30572;DHT22;17348;50.948;10.696;2022-12-18T11:13:16;-4.60;99.90
30572;DHT22;17348;50.948;10.696;2022-12-18T11:16:19;-4.60;99.90
30572;DHT22;17348;50.948;10.696;2022-12-18T11:19:29;-4.60;99.90
30572;DHT22;17348;50.948;10.696;2022-12-18T11:22:34;-4.60;99.90
30572;DHT22;17348;50.948;10.696;2022-12-18T11:25:38;-4.60;99.90
30572;DHT22;17348;50.948;10.696;2022-12-18T11:28:43;-4.40;99.90
30572;DHT22;17348;50.948;10.696;2022-12-18T11:31:47;-4.30;99.90
30572;DHT22;17348;50.948;10.696;2022-12-18T11:34:52;-4.20;99.90
30572;DHT22;17348;50.948;10.696;2022-12-18T11:38:02;-4.10;99.90
30572;DHT22;17348;50.948;10.696;2022-12-18T11:41:15;-4.00;99.90
30572;DHT22;17348;50.948;10.696;2022-12-18T11:44:26;-3.90;99.90
30572;DHT22;17348;50.948;10.696;2022-12-18T11:47:34;-3.80;99.90
30572;DHT22;17348;50.948;10.696;2022-12-18T11:50:48;-3.80;99.90
30572;DHT22;17348;50.948;10.696;2022-12-18T11:53:51;-3.70;99.90
30572;DHT22;17348;50.948;10.696;2022-12-18T11:56:59;-3.60;99.90
30572;DHT22;17348;50.948;10.696;2022-12-18T12:00:11;-3.50;99.90
30572;DHT22;17348;50.948;10.696;2022-12-18T12:03:43;-3.40;99.90
30572;DHT22;17348;50.948;10.696;2022-12-18T12:06:55;-3.30;99.90
30572;DHT22;17348;50.948;10.696;2022-12-18T12:10:09;-3.20;99.90
30572;DHT22;17348;50.948;10.696;2022-12-18T12:13:28;-3.20;99.90
30572;DHT22;17348;50.948;10.696;2022-12-18T12:16:37;-3.20;99.90
30572;DHT22;17348;50.948;10.696;2022-12-18T12:19:46;-3.20;99.90
30572;DHT22;17348;50.948;10.696;2022-12-18T12:22:56;-3.30;99.90
30572;DHT22;17348;50.948;10.696;2022-12-18T12:26:05;-3.50;99.90
30572;DHT22;17348;50.948;10.696;2022-12-18T12:29:31;-3.50;99.90
30572;DHT22;17348;50.948;10.696;2022-12-18T12:32:57;-3.60;99.90
30572;DHT22;17348;50.948;10.696;2022-12-18T12:36:08;-3.70;99.90
30572;DHT22;17348;50.948;10.696;2022-12-18T12:39:18;-3.80;99.90
30572;DHT22;17348;50.948;10.696;2022-12-18T12:42:29;-3.80;99.90
30572;DHT22;17348;50.948;10.696;2022-12-18T12:45:54;-3.70;99.90
30572;DHT22;17348;50.948;10.696;2022-12-18T12:49:00;-3.80;99.90
30572;DHT22;17348;50.948;10.696;2022-12-18T12:52:07;-3.80;99.90
30572;DHT22;17348;50.948;10.696;2022-12-18T12:55:17;-3.80;99.90
30572;DHT22;17348;50.948;10.696;2022-12-18T12:58:28;-3.90;99.90
30572;DHT22;17348;50.948;10.696;2022-12-18T13:01:38;-4.10;99.90
30572;DHT22;17348;50.948;10.696;2022-12-18T13:04:48;-4.10;99.90
30572;DHT22;17348;50.948;10.696;2022-12-18T13:07:54;-4.10;99.90
30572;DHT22;17348;50.948;10.696;2022-12-18T13:11:00;-4.10;99.90
30572;DHT22;17348;50.948;10.696;2022-12-18T13:14:25;-4.20;99.90
30572;DHT22;17348;50.948;10.696;2022-12-18T13:17:30;-4.20;99.90
30572;DHT22;17348;50.948;10.696;2022-12-18T13:20:34;-4.20;99.90
30572;DHT22;17348;50.948;10.696;2022-12-18T13:23:37;-4.30;99.90
30572;DHT22;17348;50.948;10.696;2022-12-18T13:26:40;-4.30;99.90
30572;DHT22;17348;50.948;10.696;2022-12-18T13:29:43;-4.40;99.90
30572;DHT22;17348;50.948;10.696;2022-12-18T13:32:47;-4.40;99.90
30572;DHT22;17348;50.948;10.696;2022-12-18T13:35:53;-4.50;99.90
30572;DHT22;17348;50.948;10.696;2022-12-18T13:39:22;-4.60;99.90
30572;DHT22;17348;50.948;10.696;2022-12-18T13:42:38;-4.60;99.90
30572;DHT22;17348;50.948;10.696;2022-12-18T13:46:19;-4.60;99.90
30572;DHT22;17348;50.948;10.696;2022-12-18T13:49:26;-4.70;99.90
30572;DHT22;17348;50.948;10.696;2022-12-18T13:52:35;-4.70;99.90
30572;DHT22;17348;50.948;10.696;2022-12-18T13:55:44;-4.80;99.90
30572;DHT22;17348;50.948;10.696;2022-12-18T13:59:08;-4.80;99.90
30572;DHT22;17348;50.948;10.696;2022-12-18T14:02:15;-4.90;99.90
30572;DHT22;17348;50.948;10.696;2022-12-18T14:05:23;-4.90;99.90
30572;DHT22;17348;50.948;10.696;2022-12-18T14:08:30;-5.00;99.90
30572;DHT22;17348;50.948;10.696;2022-12-18T14:11:35;-5.10;99.90
30572;DHT22;17348;50.948;10.696;2022-12-18T14:14:41;-5.10;99.90
30572;DHT22;17348;50.948;10.696;2022-12-18T14:17:44;-5.20;99.90
30572;DHT22;17348;50.948;10.696;2022-12-18T14:20:49;-5.20;99.90
30572;DHT22;17348;50.948;10.696;2022-12-18T14:24:04;-5.40;99.90
30572;DHT22;17348;50.948;10.696;2022-12-18T14:27:19;-5.50;99.90
30572;DHT22;17348;50.948;10.696;2022-12-18T14:30:27;-5.70;99.90
30572;DHT22;17348;50.948;10.696;2022-12-18T14:33:30;-5.80;99.90
30572;DHT22;17348;50.948;10.696;2022-12-18T14:36:34;-5.90;99.90
30572;DHT22;17348;50.948;10.696;2022-12-18T14:39:37;-6.00;99.90
30572;DHT22;17348;50.948;10.696;2022-12-18T14:42:39;-6.10;99.90
30572;DHT22;17348;50.948;10.696;2022-12-18T14:45:42;-6.10;99.90
30572;DHT22;17348;50.948;10.696;2022-12-18T14:48:47;-6.10;99.90
30572;DHT22;17348;50.948;10.696;2022-12-18T14:51:53;-6.20;99.90
30572;DHT22;17348;50.948;10.696;2022-12-18T14:54:55;-6.20;99.90
30572;DHT22;17348;50.948;10.696;2022-12-18T14:57:58;-6.20;99.90
30572;DHT22;17348;50.948;10.696;2022-12-18T15:01:00;-6.30;99.90
30572;DHT22;17348;50.948;10.696;2022-12-18T15:04:04;-6.30;99.90
30572;DHT22;17348;50.948;10.696;2022-12-18T15:07:15;-6.30;99.90
30572;DHT22;17348;50.948;10.696;2022-12-18T15:10:20;-6.30;99.90
30572;DHT22;17348;50.948;10.696;2022-12-18T15:13:24;-6.40;99.90
30572;DHT22;17348;50.948;10.696;2022-12-18T15:16:26;-6.40;99.90
30572;DHT22;17348;50.948;10.696;2022-12-18T15:19:35;-6.40;99.90
30572;DHT22;17348;50.948;10.696;2022-12-18T15:22:41;-6.40;99.90
30572;DHT22;17348;50.948;10.696;2022-12-18T15:25:44;-6.40;99.90
30572;DHT22;17348;50.948;10.696;2022-12-18T15:28:48;-6.40;99.90
30572;DHT22;17348;50.948;10.696;2022-12-18T15:32:00;-6.40;99.90
30572;DHT22;17348;50.948;10.696;2022-12-18T15:35:07;-6.40;99.90
30572;DHT22;17348;50.948;10.696;2022-12-18T15:38:15;-6.40;99.90
30572;DHT22;17348;50.948;10.696;2022-12-18T15:41:19;-6.50;99.90
30572;DHT22;17348;50.948;10.696;2022-12-18T15:44:23;-6.40;99.90
30572;DHT22;17348;50.948;10.696;2022-12-18T15:47:24;-6.40;99.90
30572;DHT22;17348;50.948;10.696;2022-12-18T15:50:27;-6.50;99.90
30572;DHT22;17348;50.948;10.696;2022-12-18T15:53:32;-6.50;99.90
30572;DHT22;17348;50.948;10.696;2022-12-18T15:56:35;-6.50;99.90
30572;DHT22;17348;50.948;10.696;2022-12-18T15:59:55;-6.50;99.90
30572;DHT22;17348;50.948;10.696;2022-12-18T16:02:59;-6.50;99.90
30572;DHT22;17348;50.948;10.696;2022-12-18T16:06:01;-6.50;99.90
30572;DHT22;17348;50.948;10.696;2022-12-18T16:09:05;-6.50;99.90
30572;DHT22;17348;50.948;10.696;2022-12-18T16:12:14;-6.50;99.90
30572;DHT22;17348;50.948;10.696;2022-12-18T16:15:19;-6.50;99.90
30572;DHT22;17348;50.948;10.696;2022-12-18T16:18:21;-6.50;99.90
30572;DHT22;17348;50.948;10.696;2022-12-18T16:21:23;-6.50;99.90
30572;DHT22;17348;50.948;10.696;2022-12-18T16:24:29;-6.40;99.90
30572;DHT22;17348;50.948;10.696;2022-12-18T16:27:32;-6.40;99.90
30572;DHT22;17348;50.948;10.696;2022-12-18T16:30:34;-6.40;99.90
30572;DHT22;17348;50.948;10.696;2022-12-18T16:33:37;-6.30;99.90
30572;DHT22;17348;50.948;10.696;2022-12-18T16:36:39;-6.30;99.90
30572;DHT22;17348;50.948;10.696;2022-12-18T16:39:43;-6.30;99.90
30572;DHT22;17348;50.948;10.696;2022-12-18T16:42:46;-6.20;99.90
30572;DHT22;17348;50.948;10.696;2022-12-18T16:45:48;-6.30;99.90
30572;DHT22;17348;50.948;10.696;2022-12-18T16:48:51;-6.20;99.90
30572;DHT22;17348;50.948;10.696;2022-12-18T16:51:53;-6.20;99.90
30572;DHT22;17348;50.948;10.696;2022-12-18T16:54:57;-6.20;99.90
30572;DHT22;17348;50.948;10.696;2022-12-18T16:57:59;-6.10;99.90
30572;DHT22;17348;50.948;10.696;2022-12-18T17:01:06;-6.10;99.90
30572;DHT22;17348;50.948;10.696;2022-12-18T17:04:09;-6.10;99.90
30572;DHT22;17348;50.948;10.696;2022-12-18T17:07:12;-6.00;99.90
30572;DHT22;17348;50.948;10.696;2022-12-18T17:10:16;-6.00;99.90
30572;DHT22;17348;50.948;10.696;2022-12-18T17:13:18;-6.00;99.90
30572;DHT22;17348;50.948;10.696;2022-12-18T17:16:21;-6.00;99.90
30572;DHT22;17348;50.948;10.696;2022-12-18T17:19:24;-6.00;99.90
30572;DHT22;17348;50.948;10.696;2022-12-18T17:22:26;-6.00;99.90
30572;DHT22;17348;50.948;10.696;2022-12-18T17:25:30;-6.00;99.90
30572;DHT22;17348;50.948;10.696;2022-12-18T17:28:33;-6.00;99.90
30572;DHT22;17348;50.948;10.696;2022-12-18T17:31:35;-6.00;99.90
30572;DHT22;17348;50.948;10.696;2022-12-18T17:34:38;-5.90;99.90
30572;DHT22;17348;50.948;10.696;2022-12-18T17:37:41;-5.90;99.90
30572;DHT22;17348;50.948;10.696;2022-12-18T17:40:44;-5.80;99.90
30572;DHT22;17348;50.948;10.696;2022-12-18T17:43:50;-5.80;99.90
30572;DHT22;17348;50.948;10.696;2022-12-18T17:46:53;-5.70;99.90
30572;DHT22;17348;50.948;10.696;2022-12-18T17:49:55;-5.70;99.90
30572;DHT22;17348;50.948;10.696;2022-12-18T17:52:58;-5.70;99.90
30572;DHT22;17348;50.948;10.696;2022-12-18T17:56:02;-5.70;99.90
30572;DHT22;17348;50.948;10.696;2022-12-18T17:59:06;-5.70;99.90
30572;DHT22;17348;50.948;10.696;2022-12-18T18:02:09;-5.70;99.90
30572;DHT22;17348;50.948;10.696;2022-12-18T18:05:12;-5.70;99.90
30572;DHT22;17348;50.948;10.696;2022-12-18T18:08:14;-5.60;99.90
30572;DHT22;17348;50.948;10.696;2022-12-18T18:11:19;-5.60;99.90
30572;DHT22;17348;50.948;10.696;2022-12-18T18:14:41;-5.60;99.90
30572;DHT22;17348;50.948;10.696;2022-12-18T18:17:44;-5.60;99.90
30572;DHT22;17348;50.948;10.696;2022-12-18T18:20:46;-5.50;99.90
30572;DHT22;17348;50.948;10.696;2022-12-18T18:23:48;-5.40;99.90
30572;DHT22;17348;50.948;10.696;2022-12-18T18:26:55;-5.50;99.90
30572;DHT22;17348;50.948;10.696;2022-12-18T18:29:59;-5.40;99.90
30572;DHT22;17348;50.948;10.696;2022-12-18T18:33:01;-5.40;99.90
30572;DHT22;17348;50.948;10.696;2022-12-18T18:36:05;-5.40;99.90
30572;DHT22;17348;50.948;10.696;2022-12-18T18:39:10;-5.40;99.90
30572;DHT22;17348;50.948;10.696;2022-12-18T18:42:14;-5.30;99.90
30572;DHT22;17348;50.948;10.696;2022-12-18T18:45:16;-5.30;99.90
30572;DHT22;17348;50.948;10.696;2022-12-18T18:48:18;-5.20;99.90
30572;DHT22;17348;50.948;10.696;2022-12-18T18:51:21;-5.20;99.90
30572;DHT22;17348;50.948;10.696;2022-12-18T18:54:25;-5.20;99.90
30572;DHT22;17348;50.948;10.696;2022-12-18T18:57:29;-5.20;99.90
30572;DHT22;17348;50.948;10.696;2022-12-18T19:00:31;-5.20;99.90
30572;DHT22;17348;50.948;10.696;2022-12-18T19:03:34;-5.20;99.90
30572;DHT22;17348;50.948;10.696;2022-12-18T19:06:37;-5.20;99.90
30572;DHT22;17348;50.948;10.696;2022-12-18T19:09:40;-5.20;99.90